createdAt,value
2022-12-20T12:21:32.329Z,2.70
2022-12-20T12:26:36.336Z,2.72
2022-12-20T12:31:58.107Z,2.35
2022-12-20T12:37:05.431Z,3.17
2022-12-20T12:42:14.541Z,2.25
2022-12-20T12:47:24.915Z,2.00
2022-12-20T12:52:36.228Z,3.50
2022-12-20T12:57:55.861Z,2.30
2022-12-20T13:02:57.592Z,1.77
2022-12-20T13:07:59.428Z,2.67
2022-12-20T13:13:01.865Z,2.00
2022-12-20T13:18:09.337Z,2.10
2022-12-20T13:23:10.783Z,1.83
2022-12-20T13:28:21.605Z,2.60
2022-12-20T13:33:23.074Z,2.95
2022-12-20T13:38:30.392Z,3.03
2022-12-20T13:43:41.827Z,2.33
2022-12-20T13:48:46.391Z,4.22
2022-12-20T13:54:00.242Z,2.53
2022-12-20T13:59:12.554Z,2.63
2022-12-20T14:04:14.970Z,3.10
2022-12-20T14:09:37.762Z,2.40
2022-12-20T14:14:44.299Z,2.92
2022-12-20T14:19:45.903Z,2.75
2022-12-20T14:24:47.480Z,2.97
2022-12-20T14:29:49.465Z,2.47
2022-12-20T14:34:51.378Z,2.58
2022-12-20T14:40:00.602Z,2.95
2022-12-20T14:45:05.739Z,2.90
2022-12-20T14:50:22.063Z,2.53
2022-12-20T14:55:34.745Z,3.17
2022-12-20T15:00:36.456Z,3.15
2022-12-20T15:05:51.788Z,2.78
2022-12-20T15:10:54.806Z,2.23
2022-12-20T15:15:59.159Z,2.05
2022-12-20T15:21:16.852Z,2.47
2022-12-20T15:26:22.126Z,2.25
2022-12-20T15:31:32.639Z,1.67
2022-12-20T15:36:35.119Z,2.15
2022-12-20T15:41:38.311Z,2.22
2022-12-20T15:46:40.028Z,3.38
2022-12-20T15:51:42.608Z,3.28
2022-12-20T15:56:44.164Z,3.55
2022-12-20T16:01:45.814Z,4.40
2022-12-20T16:06:49.660Z,3.97
2022-12-20T16:11:51.543Z,3.95
2022-12-20T16:16:53.096Z,4.75
2022-12-20T16:21:54.559Z,4.80
2022-12-20T16:26:56.138Z,4.40
2022-12-20T16:31:57.777Z,5.82
2022-12-20T16:36:59.385Z,6.25
2022-12-20T16:42:01.030Z,5.13
2022-12-20T16:47:02.621Z,6.70
2022-12-20T16:52:05.288Z,4.60
2022-12-20T16:57:06.816Z,5.78
2022-12-20T17:02:26.163Z,5.85
2022-12-20T17:07:28.049Z,5.97
2022-12-20T17:12:29.498Z,4.13
2022-12-20T17:17:30.920Z,4.18
2022-12-20T17:27:52.483Z,4.80
2022-12-20T17:32:54.275Z,5.25
2022-12-20T17:37:56.662Z,4.10
2022-12-20T17:42:58.160Z,5.45
2022-12-20T17:47:59.920Z,5.07
2022-12-20T17:53:01.560Z,5.40
2022-12-20T17:58:03.024Z,5.25
2022-12-20T18:03:04.621Z,5.25
2022-12-20T18:08:06.397Z,5.18
2022-12-20T18:13:08.384Z,5.50
2022-12-20T18:18:09.909Z,5.72
2022-12-20T18:23:11.344Z,5.50
2022-12-20T18:28:12.850Z,5.93
2022-12-20T18:33:14.372Z,6.20
2022-12-20T18:38:18.713Z,5.72
2022-12-20T18:43:20.250Z,5.25
2022-12-20T18:48:25.991Z,6.18
2022-12-20T18:53:27.614Z,6.82
2022-12-20T18:58:29.140Z,6.10
2022-12-20T19:03:31.005Z,5.78
2022-12-20T19:08:32.870Z,5.18
2022-12-20T19:13:34.760Z,6.68
2022-12-20T19:18:36.366Z,7.43
2022-12-20T19:23:39.507Z,5.43
2022-12-20T19:28:42.499Z,5.55
2022-12-20T19:33:47.011Z,5.35
2022-12-20T19:38:51.657Z,5.55
2022-12-20T19:43:53.516Z,4.75
2022-12-20T19:48:55.923Z,5.20
2022-12-20T19:53:58.499Z,4.82
2022-12-20T19:59:00.676Z,4.78
2022-12-20T20:04:02.299Z,5.50
2022-12-20T20:09:04.081Z,5.53
2022-12-20T20:14:05.638Z,4.78
2022-12-20T20:19:07.214Z,4.68
2022-12-20T20:24:08.735Z,4.40
2022-12-20T20:29:10.400Z,5.53
2022-12-20T20:34:11.881Z,5.25
2022-12-20T20:39:13.329Z,5.32
2022-12-20T20:44:14.947Z,5.43
2022-12-20T20:49:16.374Z,4.90
2022-12-20T20:54:17.834Z,5.70
2022-12-20T20:59:19.388Z,5.78
2022-12-20T21:04:20.861Z,6.45
2022-12-20T21:09:22.296Z,5.32
2022-12-20T21:14:43.806Z,5.80
2022-12-20T21:19:45.189Z,6.97
2022-12-20T21:24:46.702Z,7.07
2022-12-20T21:29:53.315Z,6.72
2022-12-20T21:34:57.902Z,6.32
2022-12-20T21:40:02.852Z,5.30
2022-12-20T21:45:04.900Z,5.60
2022-12-20T21:50:07.001Z,5.30
2022-12-20T21:55:08.967Z,6.25
2022-12-20T22:00:10.881Z,6.57
2022-12-20T22:05:12.402Z,5.38
2022-12-20T22:10:14.051Z,5.35
2022-12-20T22:15:15.571Z,5.38
2022-12-20T22:20:17.108Z,5.10
2022-12-20T22:25:18.624Z,5.68
2022-12-20T22:30:20.065Z,5.40
2022-12-20T22:35:23.143Z,5.75
2022-12-20T22:40:24.745Z,5.72
2022-12-20T22:45:26.326Z,5.30
2022-12-20T22:50:27.843Z,6.05
2022-12-20T22:55:29.357Z,4.95
2022-12-20T23:00:31.163Z,4.10
2022-12-20T23:05:32.643Z,5.63
2022-12-20T23:10:34.221Z,5.57
2022-12-20T23:15:36.217Z,6.20
2022-12-20T23:20:37.683Z,3.92
2022-12-20T23:25:39.219Z,5.35
2022-12-20T23:30:40.795Z,5.78
2022-12-20T23:35:42.306Z,5.15
2022-12-20T23:40:43.937Z,5.22
2022-12-20T23:45:45.544Z,5.22
2022-12-20T23:50:58.639Z,6.07
2022-12-20T23:56:18.501Z,4.80
